Decoded Metar for KCQW (CHERAW in SC, USA) (IATA:CQW) | Meteo·Mobile Aviation Weather
aviador You're here:

KCQW Decoded Metar

CHERAW in SC, USA
Report Time2019-02-20 00:55:00
UTC Time2019-02-20 01:08:52
Flight Rules mvfr MVFR
Wind040° at 06 kt
W.Decomp.*RWY 08: 5.1 kt HW 3.2 kt LCW
W.Rank040° ranks 8
Current wind is below 040° avg. (6.6)
Visibility4828 m
Phenomena:Rain
Clouds:Broken 046 Hf
Overcast 055 Hf
Expected CloudBase > 400 ft AGL from Temp-Dew spread
Ceiling4,600 ft
Temp04°C (ISA -11)
Dew Point03°C (93% RH)
AAT0.3°C
QNH1035 hPa
Density Alt-1,673 ft
Elevation240 ft
Report Wrong Elevation
Raw Report
KCQW 200055Z AUTO 04006KT 3SM RA BKN046 OVC055 04/03 A3057 RMK AO2
P0011=

Extra information for KCQW:More info

Metar Taf Metar & Taf Last 4 Metars F.Rules Stats Wind Profile Meteogram Temp Stats Airport Information Weather charts Add Link Nearby VenuesMetar ALERT Operation Metar Decoded Social comments

AIRNAV info for KCQW